Time,TemperatureF,DewpointF,PressureIn,WindDirection,WindDirectionDegrees,WindSpeedMPH,WindSpeedGustMPH,Humidity,HourlyPrecipIn,Conditions,Clouds,dailyrainin,SoftwareType,DateUTC
2013-09-07 00:00:00,69.0,-99.9,-100.00,SSW,210,10.0,15.0,-999,-99.99,,,-99.99,,2013-09-07 06:00:00,
2013-09-07 00:22:00,69.0,-99.9,-100.00,SSW,210,10.0,15.0,-999,-99.99,,,-99.99,,2013-09-07 06:22:00,
2013-09-07 00:33:00,69.0,-99.9,-100.00,SSW,210,10.0,15.0,-999,-99.99,,,-99.99,,2013-09-07 06:33:00,
2013-09-07 00:43:00,69.0,-99.9,-100.00,SSW,210,10.0,15.0,-999,-99.99,,,-99.99,,2013-09-07 06:43:00,
2013-09-07 00:52:00,69.0,-99.9,-100.00,SSW,210,10.0,15.0,-999,-99.99,,,-99.99,,2013-09-07 06:52:00,
2013-09-07 01:00:00,69.0,-99.9,-100.00,SSW,203,9.0,12.0,-999,-99.99,,,-99.99,,2013-09-07 07:00:00,
2013-09-07 01:43:00,69.0,-99.9,-100.00,SSW,203,9.0,12.0,-999,-99.99,,,-99.99,,2013-09-07 07:43:00,
2013-09-07 01:52:00,69.0,-99.9,-100.00,SSW,203,9.0,12.0,-999,-99.99,,,-99.99,,2013-09-07 07:52:00,
2013-09-07 02:00:00,69.0,-99.9,-100.00,SSW,210,12.0,15.0,-999,-99.99,,,-99.99,,2013-09-07 08:00:00,
2013-09-07 02:22:00,69.0,-99.9,-100.00,SSW,210,12.0,15.0,-999,-99.99,,,-99.99,,2013-09-07 08:22:00,
2013-09-07 02:32:00,69.0,-99.9,-100.00,SSW,210,12.0,15.0,-999,-99.99,,,-99.99,,2013-09-07 08:32:00,
2013-09-07 02:43:00,69.0,-99.9,-100.00,SSW,210,12.0,15.0,-999,-99.99,,,-99.99,,2013-09-07 08:43:00,
2013-09-07 02:53:00,69.0,-99.9,-100.00,SSW,210,12.0,15.0,-999,-99.99,,,-99.99,,2013-09-07 08:53:00,
2013-09-07 03:00:00,66.0,-99.9,-100.00,WSW,245,10.0,12.0,-999,-99.99,,,-99.99,,2013-09-07 09:00:00,
2013-09-07 03:43:00,66.0,-99.9,-100.00,WSW,245,10.0,12.0,-999,-99.99,,,-99.99,,2013-09-07 09:43:00,
2013-09-07 03:52:00,66.0,-99.9,-100.00,WSW,245,10.0,12.0,-999,-99.99,,,-99.99,,2013-09-07 09:52:00,
2013-09-07 06:00:00,60.0,-99.9,-100.00,WNW,283,3.0,5.0,-999,-99.99,,,-99.99,,2013-09-07 12:00:00,
2013-09-07 06:42:00,60.0,-99.9,-100.00,WNW,283,3.0,5.0,-999,-99.99,,,-99.99,,2013-09-07 12:42:00,
2013-09-07 06:52:00,60.0,-99.9,-100.00,WNW,283,3.0,5.0,-999,-99.99,,,-99.99,,2013-09-07 12:52:00,
2013-09-07 07:00:00,63.0,-99.9,-100.00,WSW,250,7.0,8.0,-999,-99.99,,,-99.99,,2013-09-07 13:00:00,
2013-09-07 07:42:00,63.0,-99.9,-100.00,WSW,250,7.0,8.0,-999,-99.99,,,-99.99,,2013-09-07 13:42:00,
2013-09-07 07:52:00,63.0,-99.9,-100.00,WSW,250,7.0,8.0,-999,-99.99,,,-99.99,,2013-09-07 13:52:00,
2013-09-07 08:00:00,68.0,-99.9,-100.00,NE,44,4.0,5.0,-999,-99.99,,,-99.99,,2013-09-07 14:00:00,
2013-09-07 08:53:00,68.0,-99.9,-100.00,NE,44,4.0,5.0,-999,-99.99,,,-99.99,,2013-09-07 14:53:00,
2013-09-07 09:00:00,64.0,-99.9,-100.00,NNW,348,2.0,3.0,-999,-99.99,,,-99.99,,2013-09-07 15:00:00,
2013-09-07 09:44:00,64.0,-99.9,-100.00,NNW,348,2.0,3.0,-999,-99.99,,,-99.99,,2013-09-07 15:44:00,
2013-09-07 09:54:00,64.0,-99.9,-100.00,NNW,348,2.0,3.0,-999,-99.99,,,-99.99,,2013-09-07 15:54:00,
2013-09-07 10:00:00,65.0,-99.9,-100.00,SSE,153,1.0,2.0,-999,-99.99,,,-99.99,,2013-09-07 16:00:00,
2013-09-07 10:24:00,65.0,-99.9,-100.00,SSE,153,1.0,2.0,-999,-99.99,,,-99.99,,2013-09-07 16:24:00,
2013-09-07 10:34:00,65.0,-99.9,-100.00,SSE,153,1.0,2.0,-999,-99.99,,,-99.99,,2013-09-07 16:34:00,
2013-09-07 10:43:00,65.0,-99.9,-100.00,SSE,153,1.0,2.0,-999,-99.99,,,-99.99,,2013-09-07 16:43:00,
2013-09-07 10:53:00,65.0,-99.9,-100.00,SSE,153,1.0,2.0,-999,-99.99,,,-99.99,,2013-09-07 16:53:00,
2013-09-07 11:00:00,71.0,-99.9,-100.00,SSE,162,3.0,5.0,-999,-99.99,,,-99.99,,2013-09-07 17:00:00,
2013-09-07 11:43:00,71.0,-99.9,-100.00,SSE,162,3.0,5.0,-999,-99.99,,,-99.99,,2013-09-07 17:43:00,
2013-09-07 11:52:00,71.0,-99.9,-100.00,SSE,162,3.0,5.0,-999,-99.99,,,-99.99,,2013-09-07 17:52:00,
2013-09-07 12:00:00,76.0,-99.9,-100.00,North,351,5.0,8.0,-999,-99.99,,,-99.99,,2013-09-07 18:00:00,
2013-09-07 12:43:00,76.0,-99.9,-100.00,North,351,5.0,8.0,-999,-99.99,,,-99.99,,2013-09-07 18:43:00,
2013-09-07 12:52:00,76.0,-99.9,-100.00,North,351,5.0,8.0,-999,-99.99,,,-99.99,,2013-09-07 18:52:00,
2013-09-07 13:00:00,79.0,-99.9,-100.00,NNE,15,5.0,7.0,-999,-99.99,,,-99.99,,2013-09-07 19:00:00,
2013-09-07 13:42:00,79.0,-99.9,-100.00,NNE,15,5.0,7.0,-999,-99.99,,,-99.99,,2013-09-07 19:42:00,
2013-09-07 13:53:00,79.0,-99.9,-100.00,NNE,15,5.0,7.0,-999,-99.99,,,-99.99,,2013-09-07 19:53:00,
2013-09-07 14:00:00,76.0,-99.9,-100.00,North,6,10.0,11.0,-999,-99.99,,,-99.99,,2013-09-07 20:00:00,
2013-09-07 14:22:00,76.0,-99.9,-100.00,North,6,10.0,11.0,-999,-99.99,,,-99.99,,2013-09-07 20:22:00,
2013-09-07 14:32:00,76.0,-99.9,-100.00,North,6,10.0,11.0,-999,-99.99,,,-99.99,,2013-09-07 20:32:00,
2013-09-07 14:42:00,76.0,-99.9,-100.00,North,6,10.0,11.0,-999,-99.99,,,-99.99,,2013-09-07 20:42:00,
2013-09-07 14:53:00,76.0,-99.9,-100.00,North,6,10.0,11.0,-999,-99.99,,,-99.99,,2013-09-07 20:53:00,
2013-09-07 15:00:00,82.0,-99.9,-100.00,North,354,9.0,12.0,-999,-99.99,,,-99.99,,2013-09-07 21:00:00,
2013-09-07 15:44:00,82.0,-99.9,-100.00,North,354,9.0,12.0,-999,-99.99,,,-99.99,,2013-09-07 21:44:00,
2013-09-07 15:54:00,82.0,-99.9,-100.00,North,354,9.0,12.0,-999,-99.99,,,-99.99,,2013-09-07 21:54:00,
2013-09-07 16:00:00,79.0,-99.9,-100.00,NW,322,6.0,7.0,-999,-99.99,,,-99.99,,2013-09-07 22:00:00,
2013-09-07 16:43:00,79.0,-99.9,-100.00,NW,322,6.0,7.0,-999,-99.99,,,-99.99,,2013-09-07 22:43:00,
2013-09-07 16:53:00,79.0,-99.9,-100.00,NW,322,6.0,7.0,-999,-99.99,,,-99.99,,2013-09-07 22:53:00,
2013-09-07 18:00:00,82.0,-99.9,-100.00,West,269,2.0,3.0,-999,-99.99,,,-99.99,,2013-09-08 00:00:00,
2013-09-07 18:22:00,82.0,-99.9,-100.00,West,269,2.0,3.0,-999,-99.99,,,-99.99,,2013-09-08 00:22:00,
2013-09-07 18:33:00,82.0,-99.9,-100.00,West,269,2.0,3.0,-999,-99.99,,,-99.99,,2013-09-08 00:33:00,
2013-09-07 18:43:00,82.0,-99.9,-100.00,West,269,2.0,3.0,-999,-99.99,,,-99.99,,2013-09-08 00:43:00,
2013-09-07 18:52:00,82.0,-99.9,-100.00,West,269,2.0,3.0,-999,-99.99,,,-99.99,,2013-09-08 00:52:00,
2013-09-07 19:00:00,76.0,-99.9,-100.00,SW,232,3.0,4.0,-999,-99.99,,,-99.99,,2013-09-08 01:00:00,
2013-09-07 19:42:00,76.0,-99.9,-100.00,SW,232,3.0,4.0,-999,-99.99,,,-99.99,,2013-09-08 01:42:00,
2013-09-07 19:52:00,76.0,-99.9,-100.00,SW,232,3.0,4.0,-999,-99.99,,,-99.99,,2013-09-08 01:52:00,
2013-09-07 21:00:00,-999.0,-99.9,-100.00,WSW,249,8.0,11.0,-999,-99.99,,,-99.99,,2013-09-08 03:00:00,
2013-09-07 21:23:00,73.0,-99.9,-100.00,WSW,249,8.0,11.0,-999,-99.99,,,-99.99,,2013-09-08 03:23:00,
2013-09-07 21:34:00,73.0,-99.9,-100.00,WSW,249,8.0,11.0,-999,-99.99,,,-99.99,,2013-09-08 03:34:00,
2013-09-07 21:44:00,73.0,-99.9,-100.00,WSW,249,8.0,11.0,-999,-99.99,,,-99.99,,2013-09-08 03:44:00,
2013-09-07 21:54:00,73.0,-99.9,-100.00,WSW,249,8.0,11.0,-999,-99.99,,,-99.99,,2013-09-08 03:54:00,
2013-09-07 22:00:00,67.0,-99.9,-100.00,NNE,29,10.0,11.0,-999,-99.99,,,-99.99,,2013-09-08 04:00:00,
2013-09-07 22:44:00,67.0,-99.9,-100.00,NNE,29,10.0,11.0,-999,-99.99,,,-99.99,,2013-09-08 04:44:00,
2013-09-07 22:54:00,67.0,-99.9,-100.00,NNE,29,10.0,11.0,-999,-99.99,,,-99.99,,2013-09-08 04:54:00,
2013-09-07 23:00:00,61.0,-99.9,-100.00,ENE,58,8.0,10.0,-999,-99.99,,,-99.99,,2013-09-08 05:00:00,
2013-09-07 23:23:00,61.0,-99.9,-100.00,ENE,58,8.0,10.0,-999,-99.99,,,-99.99,,2013-09-08 05:23:00,
2013-09-07 23:34:00,61.0,-99.9,-100.00,ENE,58,8.0,10.0,-999,-99.99,,,-99.99,,2013-09-08 05:34:00,
2013-09-07 23:43:00,61.0,-99.9,-100.00,ENE,58,8.0,10.0,-999,-99.99,,,-99.99,,2013-09-08 05:43:00,
2013-09-07 23:52:00,61.0,-99.9,-100.00,ENE,58,8.0,10.0,-999,-99.99,,,-99.99,,2013-09-08 05:52:00,